Time;durP1;ratioP1;P1;durP2;ratioP2;P2;SDS_P1;SDS_P2;PMS_P1;PMS_P2;Temp;Humidity;BMP_temperature;BMP_pressure;BME280_temperature;BME280_humidity;BME280_pressure;Samples;Min_cycle;Max_cycle;Signal;HPM_P1;HPM_P2
2022/12/06 00:01:41;;;;;;;12.50;8.27;;;;;;;3.44;100.00;101901.69;4985686;28;20022;-65
2022/12/06 00:04:11;;;;;;;10.57;8.63;;;;;;;3.44;100.00;101899.13;4985920;28;20026;-65
2022/12/06 00:06:43;;;;;;;9.83;8.83;;;;;;;3.45;100.00;101895.81;4985719;28;20026;-64
2022/12/06 00:09:19;;;;;;;11.40;8.87;;;;;;;3.44;100.00;101899.13;4986470;28;20030;-65
2022/12/06 00:11:45;;;;;;;11.83;8.80;;;;;;;3.45;100.00;101900.94;4983783;28;20534;-65
2022/12/06 00:14:11;;;;;;;10.10;8.97;;;;;;;3.45;100.00;101898.38;4984352;28;20109;-65
2022/12/06 00:16:36;;;;;;;12.83;8.87;;;;;;;3.46;100.00;101897.56;4985625;28;20022;-64
2022/12/06 00:19:03;;;;;;;12.53;9.30;;;;;;;3.45;100.00;101896.66;4989843;28;20032;-65
2022/12/06 00:21:34;;;;;;;11.53;8.77;;;;;;;3.46;100.00;101897.56;4990032;28;20432;-65
2022/12/06 00:24:01;;;;;;;11.70;10.50;;;;;;;3.46;100.00;101897.56;4989623;28;20022;-65
2022/12/06 00:26:28;;;;;;;13.63;10.37;;;;;;;3.48;100.00;101901.16;4989073;28;20026;-65
2022/12/06 00:28:56;;;;;;;13.57;10.73;;;;;;;3.47;100.00;101897.69;4989388;28;20109;-65
2022/12/06 00:31:23;;;;;;;11.20;9.53;;;;;;;3.46;100.00;101892.44;4987165;28;20029;-65
2022/12/06 00:33:48;;;;;;;12.33;10.27;;;;;;;3.47;100.00;101894.25;4989175;28;20043;-65
2022/12/06 00:36:17;;;;;;;17.00;10.40;;;;;;;3.48;100.00;101890.91;4988839;28;20033;-65
2022/12/06 00:38:43;;;;;;;13.67;10.33;;;;;;;3.48;100.00;101893.47;4986823;28;20061;-65
2022/12/06 00:41:11;;;;;;;12.17;10.27;;;;;;;3.50;100.00;101898.72;4988770;28;20030;-65
2022/12/06 00:43:37;;;;;;;12.10;10.23;;;;;;;3.48;100.00;101889.25;4988962;28;20137;-65
2022/12/06 00:46:05;;;;;;;12.60;10.47;;;;;;;3.49;100.00;101887.56;4988253;28;20120;-65
2022/12/06 00:48:30;;;;;;;12.23;9.80;;;;;;;3.49;100.00;101890.13;4988094;28;20034;-65
2022/12/06 00:50:55;;;;;;;13.73;11.13;;;;;;;3.50;100.00;101888.47;4988936;28;20061;-64
2022/12/06 00:53:21;;;;;;;14.30;11.07;;;;;;;3.51;100.00;101900.53;4989121;28;20046;-65
2022/12/06 00:55:47;;;;;;;12.87;10.30;;;;;;;3.51;100.00;101891.13;4988799;28;20045;-65
2022/12/06 00:58:13;;;;;;;14.30;11.23;;;;;;;3.51;100.00;101886.00;4988592;28;20028;-65
2022/12/06 01:00:38;;;;;;;13.47;10.63;;;;;;;3.52;100.00;101892.94;4988599;28;20026;-65
2022/12/06 01:03:04;;;;;;;13.70;10.33;;;;;;;3.51;100.00;101893.69;4988651;28;20033;-65
2022/12/06 01:05:30;;;;;;;11.73;10.50;;;;;;;3.52;100.00;101892.94;4988936;28;20078;-65
2022/12/06 01:07:55;;;;;;;17.30;11.37;;;;;;;3.52;100.00;101898.06;4988163;28;20349;-65
2022/12/06 01:10:20;;;;;;;13.27;10.20;;;;;;;3.52;100.00;101892.03;4987411;28;20040;-65
2022/12/06 01:12:46;;;;;;;14.03;11.13;;;;;;;3.52;100.00;101892.94;4988586;28;20041;-65
2022/12/06 01:15:12;;;;;;;13.60;12.00;;;;;;;3.54;100.00;101899.09;4986591;28;20162;-65
2022/12/06 01:17:38;;;;;;;13.53;11.03;;;;;;;3.54;100.00;101898.19;4988637;28;20057;-65
2022/12/06 01:20:04;;;;;;;14.07;11.13;;;;;;;3.54;100.00;101896.53;4988086;28;20153;-65
2022/12/06 01:22:30;;;;;;;15.13;11.80;;;;;;;3.55;100.00;101897.41;4988482;28;20394;-64
2022/12/06 01:24:56;;;;;;;12.50;11.13;;;;;;;3.54;100.00;101896.53;4988285;28;20034;-64
2022/12/06 01:27:21;;;;;;;12.53;11.23;;;;;;;3.54;100.00;101893.97;4988358;28;20037;-65
2022/12/06 01:29:46;;;;;;;14.23;11.77;;;;;;;3.55;100.00;101890.59;4987891;28;20091;-65
2022/12/06 01:32:12;;;;;;;14.20;10.30;;;;;;;3.55;100.00;101890.59;4987119;28;20038;-64
2022/12/06 01:34:37;;;;;;;13.70;11.13;;;;;;;3.55;100.00;101890.59;4987996;28;20034;-65
2022/12/06 01:37:03;;;;;;;14.23;10.90;;;;;;;3.54;100.00;101893.97;4988457;28;20022;-65
2022/12/06 01:39:28;;;;;;;12.70;10.93;;;;;;;3.55;100.00;101900.88;4987586;28;20126;-65
2022/12/06 01:41:54;;;;;;;15.03;11.27;;;;;;;3.55;100.00;101898.31;4988385;28;20038;-65
2022/12/06 01:44:42;;;;;;;13.60;11.20;;;;;;;3.55;100.00;101898.31;4987542;28;20034;-65
2022/12/06 01:47:24;;;;;;;14.87;10.60;;;;;;;3.56;100.00;101900.06;4985953;28;20026;-65
2022/12/06 01:49:52;;;;;;;;;;;;;;;3.56;100.00;101894.06;4986521;28;20030;-65
2022/12/06 01:52:23;;;;;;;13.30;10.40;;;;;;;3.55;100.00;101893.19;4987621;28;20385;-64
2022/12/06 01:54:48;;;;;;;11.15;9.70;;;;;;;3.56;100.00;101883.81;4988356;28;20044;-65
2022/12/06 01:57:15;;;;;;;14.10;9.50;;;;;;;3.56;100.00;101883.81;4988003;28;20030;-65
2022/12/06 01:59:42;;;;;;;10.67;8.80;;;;;;;3.55;100.00;101885.47;4985526;28;20482;-65
2022/12/06 02:02:07;;;;;;;10.83;9.30;;;;;;;3.56;100.00;101889.81;4987578;28;20015;-65
2022/12/06 02:04:33;;;;;;;11.20;8.30;;;;;;;3.56;100.00;101891.50;4986282;28;20037;-65
2022/12/06 02:07:00;;;;;;;11.00;8.60;;;;;;;3.56;100.00;101884.69;4987779;28;20028;-65
2022/12/06 02:09:27;;;;;;;10.97;8.80;;;;;;;3.56;100.00;101888.94;4986967;28;20065;-65
2022/12/06 02:11:52;;;;;;;10.60;8.70;;;;;;;3.57;100.00;101885.59;4987528;28;20030;-65
2022/12/06 02:14:22;;;;;;;8.87;7.63;;;;;;;3.56;100.00;101888.94;4987267;28;20331;-65
2022/12/06 02:17:09;;;;;;;10.83;9.57;;;;;;;3.56;100.00;101884.69;4988114;28;20022;-64
2022/12/06 02:19:55;;;;;;;11.53;8.60;;;;;;;3.57;100.00;101883.94;4986929;28;20026;-64
2022/12/06 02:22:23;;;;;;;13.97;8.87;;;;;;;3.58;100.00;101890.84;4984505;28;20026;-65
2022/12/06 02:25:07;;;;;;;11.27;9.17;;;;;;;3.57;100.00;101878.81;4987624;28;20030;-65
2022/12/06 02:27:44;;;;;;;10.97;9.20;;;;;;;3.58;100.00;101883.16;4986330;28;20044;-65
2022/12/06 02:30:17;;;;;;;10.67;8.77;;;;;;;3.59;100.00;101884.97;4986761;28;20018;-65
2022/12/06 02:32:48;;;;;;;11.53;9.47;;;;;;;3.59;100.00;101884.97;4984717;28;20360;-64
2022/12/06 02:35:25;;;;;;;13.40;9.63;;;;;;;3.59;100.00;101881.50;4986265;28;20029;-65
2022/12/06 02:38:09;;;;;;;11.90;9.43;;;;;;;3.59;100.00;101884.97;4984382;28;20041;-65
2022/12/06 02:40:40;;;;;;;14.13;9.00;;;;;;;3.59;100.00;101879.84;4968300;28;20449;-65
2022/12/06 02:43:15;;;;;;;12.95;8.50;;;;;;;3.59;100.00;101877.25;4984736;28;20364;-65
2022/12/06 02:45:47;;;;;;;11.83;8.50;;;;;;;3.59;100.00;101872.13;4986411;28;20097;-65
2022/12/06 02:48:14;;;;;;;11.77;9.03;;;;;;;3.58;100.00;101872.91;4986662;28;20022;-65
2022/12/06 02:50:46;;;;;;;9.30;7.83;;;;;;;3.58;100.00;101870.34;4986866;28;20030;-65
2022/12/06 02:53:16;;;;;;;11.60;8.70;;;;;;;3.58;100.00;101878.03;4986749;28;20026;-65
2022/12/06 02:55:43;;;;;;;14.33;8.43;;;;;;;3.57;100.00;101863.44;4986032;28;20101;-64
2022/12/06 02:58:09;;;;;;;12.97;8.07;;;;;;;3.58;100.00;101867.78;4986518;28;20081;-65
2022/12/06 03:00:35;;;;;;;10.63;8.73;;;;;;;3.58;100.00;101856.66;4985301;28;20026;-65
2022/12/06 03:03:19;;;;;;;11.07;7.87;;;;;;;3.58;100.00;101866.91;4987002;28;20105;-65
2022/12/06 03:06:00;;;;;;;10.67;7.77;;;;;;;3.59;100.00;101863.53;4986559;28;20034;-64
2022/12/06 03:08:53;;;;;;;13.37;8.07;;;;;;;3.58;100.00;101865.22;4983817;28;20037;-64
2022/12/06 03:11:18;;;;;;;13.73;8.63;;;;;;;3.58;100.00;101861.78;4986625;28;20026;-65
2022/12/06 03:14:08;;;;;;;10.83;8.10;;;;;;;3.57;100.00;101866.00;4987093;28;20034;-65
2022/12/06 03:16:38;;;;;;;10.67;7.93;;;;;;;3.57;100.00;101866.00;4985538;28;20028;-65
2022/12/06 03:19:12;;;;;;;11.50;7.80;;;;;;;3.58;100.00;101878.03;4984201;28;20054;-65
2022/12/06 03:21:44;;;;;;;10.60;8.07;;;;;;;3.57;100.00;101872.78;4985848;28;20100;-65
2022/12/06 03:24:12;;;;;;;10.47;8.10;;;;;;;3.56;100.00;101874.44;4986001;28;20026;-64
2022/12/06 03:26:38;;;;;;;9.73;7.90;;;;;;;3.55;100.00;101874.31;4986236;28;20490;-65
2022/12/06 03:29:07;;;;;;;11.40;8.30;;;;;;;3.56;100.00;101871.88;4986539;28;20546;-65
2022/12/06 03:31:36;;;;;;;10.97;8.33;;;;;;;3.56;100.00;101873.56;4986305;28;20030;-65
2022/12/06 03:34:09;;;;;;;13.77;8.40;;;;;;;3.57;100.00;101876.25;4983169;28;20022;-64
2022/12/06 03:36:35;;;;;;;13.57;8.03;;;;;;;3.57;100.00;101875.34;4986448;28;20128;-65
2022/12/06 03:39:03;;;;;;;11.00;8.70;;;;;;;3.57;100.00;101881.38;4985673;28;20501;-65
2022/12/06 03:41:39;;;;;;;9.70;7.70;;;;;;;3.56;100.00;101877.00;4985692;28;20023;-65
2022/12/06 03:44:05;;;;;;;12.13;8.27;;;;;;;3.57;100.00;101878.81;4983404;28;20026;-65
2022/12/06 03:46:34;;;;;;;11.60;8.90;;;;;;;3.57;100.00;101876.25;4985356;28;20053;-65
2022/12/06 03:49:02;;;;;;;11.53;8.63;;;;;;;3.57;100.00;101876.25;4985919;28;20089;-65
2022/12/06 03:51:31;;;;;;;15.67;8.60;;;;;;;3.57;100.00;101871.13;4986526;28;20348;-65
2022/12/06 03:53:58;;;;;;;13.87;9.43;;;;;;;3.57;100.00;101868.56;4990413;28;20717;-64
2022/12/06 03:56:25;;;;;;;11.57;8.73;;;;;;;3.56;100.00;101866.75;4988382;28;20018;-65
2022/12/06 03:58:50;;;;;;;12.13;9.23;;;;;;;3.57;100.00;101875.34;4989682;28;20022;-65
2022/12/06 04:01:16;;;;;;;17.40;9.60;;;;;;;3.57;100.00;101865.09;4989863;28;20026;-65
2022/12/06 04:03:42;;;;;;;12.30;9.23;;;;;;;3.57;100.00;101876.25;4987191;28;20026;-64
2022/12/06 04:06:09;;;;;;;13.57;9.07;;;;;;;3.58;100.00;101866.91;4990104;28;20014;-65
2022/12/06 04:08:35;;;;;;;14.57;10.13;;;;;;;3.56;100.00;101865.88;4989851;28;20026;-64
2022/12/06 04:11:00;;;;;;;12.70;9.47;;;;;;;3.56;100.00;101876.13;4989236;28;20018;-65
2022/12/06 04:13:27;;;;;;;14.87;9.07;;;;;;;3.55;100.00;101877.78;4989862;28;20366;-65
2022/12/06 04:15:58;;;;;;;13.00;9.67;;;;;;;3.55;100.00;101861.50;4989899;28;20387;-65
2022/12/06 04:18:23;;;;;;;15.85;9.95;;;;;;;3.56;100.00;101873.56;4988244;28;20101;-64
2022/12/06 04:23:41;;;;;;;;;;;;;;;3.56;100.00;101866.75;4990278;28;20116;-64
2022/12/06 04:26:09;;;;;;;11.30;8.37;;;;;;;3.55;100.00;101872.66;4989117;28;19929;-65
2022/12/06 04:39:32;;;;;;;14.30;9.13;;;;;;;3.55;100.00;101870.09;4987886;28;20066;-65
2022/12/06 04:44:42;;;;;;;14.20;9.33;;;;;;;3.55;100.00;101877.78;4988631;28;20517;-65
2022/12/06 04:47:08;;;;;;;11.87;8.80;;;;;;;3.55;100.00;101872.66;4987804;28;20022;-65
2022/12/06 04:49:34;;;;;;;17.13;8.83;;;;;;;3.56;100.00;101871.00;4987790;28;20489;-65
2022/12/06 04:51:59;;;;;;;14.93;9.40;;;;;;;3.55;100.00;101872.66;4987601;28;20580;-65
2022/12/06 04:54:25;;;;;;;13.40;8.83;;;;;;;3.56;100.00;101871.88;4987277;28;20026;-65
2022/12/06 04:56:51;;;;;;;17.73;9.27;;;;;;;3.55;100.00;101867.53;4987804;28;20587;-65
2022/12/06 04:59:17;;;;;;;15.33;9.07;;;;;;;3.55;100.00;101862.41;4986650;28;20078;-65
2022/12/06 05:01:42;;;;;;;15.80;9.25;;;;;;;3.56;100.00;101866.75;4988059;28;20180;-64
2022/12/06 05:04:08;;;;;;;16.20;9.20;;;;;;;3.57;100.00;101875.34;4987674;28;20026;-64
2022/12/06 05:06:33;;;;;;;12.90;8.10;;;;;;;3.57;100.00;101868.56;4987759;28;20104;-64
2022/12/06 05:08:58;;;;;;;17.27;10.40;;;;;;;3.57;100.00;101863.44;4987648;28;20029;-65
2022/12/06 05:11:24;;;;;;;15.87;9.07;;;;;;;3.58;100.00;101880.59;4987525;28;20022;-65
2022/12/06 05:13:49;;;;;;;15.30;8.53;;;;;;;3.57;100.00;101859.97;4987608;28;20025;-64
2022/12/06 05:16:14;;;;;;;14.23;8.57;;;;;;;3.57;100.00;101866.00;4987729;28;20355;-65
2022/12/06 05:18:40;;;;;;;12.93;8.93;;;;;;;3.56;100.00;101859.06;4987218;28;20344;-64
2022/12/06 05:21:14;;;;;;;13.37;8.70;;;;;;;3.56;100.00;101868.44;4987232;28;20459;-65
2022/12/06 05:23:40;;;;;;;15.57;8.30;;;;;;;3.56;100.00;101863.31;4987182;28;20022;-64
2022/12/06 05:26:09;;;;;;;14.10;8.70;;;;;;;3.56;100.00;101861.63;4987288;28;20277;-64
2022/12/06 05:28:35;;;;;;;13.53;8.77;;;;;;;3.56;100.00;101859.06;4986535;28;20026;-65
2022/12/06 05:31:00;;;;;;;17.73;8.53;;;;;;;3.55;100.00;101861.50;4987002;28;20026;-65
2022/12/06 05:33:25;;;;;;;14.03;8.20;;;;;;;3.55;100.00;101857.28;4988986;28;20438;-64
2022/12/06 05:35:51;;;;;;;14.97;8.50;;;;;;;3.55;100.00;101864.97;4988280;28;20030;-65
2022/12/06 05:38:17;;;;;;;15.77;9.30;;;;;;;3.54;100.00;101858.06;4987712;28;20085;-65
2022/12/06 05:40:44;;;;;;;14.03;8.67;;;;;;;3.54;100.00;101859.75;4987601;28;20068;-65
2022/12/06 05:43:09;;;;;;;10.60;8.03;;;;;;;3.54;100.00;101858.06;4988939;28;20023;-64
2022/12/06 05:45:36;;;;;;;14.40;9.03;;;;;;;3.54;100.00;101862.31;4951083;28;1050731;-65
2022/12/06 05:48:02;;;;;;;15.13;8.83;;;;;;;3.53;100.00;101863.97;4988924;28;20360;-65
2022/12/06 05:50:27;;;;;;;11.77;7.63;;;;;;;3.52;100.00;101859.63;4988524;28;20022;-64
2022/12/06 05:52:58;;;;;;;11.37;7.63;;;;;;;3.52;100.00;101872.44;4988117;28;20037;-65
2022/12/06 05:55:24;;;;;;;14.77;7.57;;;;;;;3.51;100.00;101865.50;4985254;28;20536;-64
2022/12/06 05:57:50;;;;;;;15.23;7.80;;;;;;;3.50;100.00;101866.28;4987708;28;20109;-65
2022/12/06 06:00:16;;;;;;;11.90;6.17;;;;;;;3.50;100.00;101863.72;4988542;28;20030;-65
2022/12/06 06:02:42;;;;;;;14.03;7.73;;;;;;;3.50;100.00;101865.38;4976329;28;20423;-65
2022/12/06 06:05:07;;;;;;;10.37;6.33;;;;;;;3.49;100.00;101867.06;4988280;28;20024;-65
2022/12/06 06:07:33;;;;;;;10.90;7.30;;;;;;;3.50;100.00;101867.94;4989208;28;20386;-65
2022/12/06 06:09:58;;;;;;;11.87;6.33;;;;;;;3.48;100.00;101871.31;4988660;28;20022;-64
2022/12/06 06:12:23;;;;;;;13.93;6.23;;;;;;;3.47;100.00;101872.06;4988443;28;20022;-65
2022/12/06 06:14:49;;;;;;;13.80;6.50;;;;;;;3.48;100.00;101865.28;4987351;28;20025;-64
2022/12/06 06:17:14;;;;;;;15.67;7.37;;;;;;;3.48;100.00;101871.31;4987950;28;20026;-64
2022/12/06 06:19:40;;;;;;;12.73;5.83;;;;;;;3.49;100.00;101872.19;4988694;28;20018;-65
2022/12/06 06:22:05;;;;;;;10.57;6.77;;;;;;;3.48;100.00;101875.53;4988164;28;20034;-65
2022/12/06 06:24:38;;;;;;;11.77;6.40;;;;;;;3.48;100.00;101870.41;4983484;28;20399;-65
2022/12/06 06:27:04;;;;;;;12.13;6.73;;;;;;;3.47;100.00;101877.19;4975754;28;20084;-65
2022/12/06 06:29:30;;;;;;;11.03;6.30;;;;;;;3.47;100.00;101873.75;4988271;28;20085;-64
2022/12/06 06:31:55;;;;;;;11.07;6.37;;;;;;;3.45;100.00;101870.19;4987832;28;20479;-65
2022/12/06 06:34:21;;;;;;;13.57;7.43;;;;;;;3.44;100.00;101873.50;4985994;28;20490;-65
2022/12/06 06:36:46;;;;;;;9.20;6.67;;;;;;;3.43;100.00;101869.16;4987412;28;20497;-65
2022/12/06 06:39:12;;;;;;;11.57;6.63;;;;;;;3.43;100.00;101869.16;4984650;28;20030;-65
2022/12/06 06:41:37;;;;;;;10.23;6.53;;;;;;;3.42;100.00;101864.81;4987327;28;20033;-64
2022/12/06 06:44:03;;;;;;;8.68;6.10;;;;;;;3.40;100.00;101864.66;4987747;28;20028;-65
2022/12/06 06:46:29;;;;;;;10.30;7.03;;;;;;;3.40;100.00;101871.50;4986231;28;20108;-65
2022/12/06 06:48:54;;;;;;;13.35;6.22;;;;;;;3.38;100.00;101867.91;4986942;28;20034;-65
2022/12/06 06:51:19;;;;;;;11.97;6.17;;;;;;;3.38;100.00;101865.34;4988009;28;20018;-64
2022/12/06 06:53:44;;;;;;;8.10;5.78;;;;;;;3.36;100.00;101866.09;4988074;28;20036;-65
2022/12/06 06:56:10;;;;;;;11.53;5.70;;;;;;;3.36;100.00;101866.09;4987897;28;20026;-64
2022/12/06 06:58:35;;;;;;;11.60;6.77;;;;;;;3.35;100.00;101859.19;4987174;28;20076;-65
2022/12/06 07:01:04;;;;;;;11.50;5.90;;;;;;;3.32;100.00;101869.22;4988322;28;20105;-64
2022/12/06 07:03:30;;;;;;;7.63;5.87;;;;;;;3.29;100.00;101868.94;4987987;28;20466;-64
2022/12/06 07:05:58;;;;;;;11.23;6.60;;;;;;;3.27;100.00;101865.41;4988421;28;20026;-65
2022/12/06 07:08:24;;;;;;;15.23;6.13;;;;;;;3.26;100.00;101862.72;4987532;28;20479;-64
2022/12/06 07:10:50;;;;;;;11.43;6.30;;;;;;;3.23;100.00;101858.25;4986148;28;20033;-65
2022/12/06 07:13:16;;;;;;;10.43;5.80;;;;;;;3.22;100.00;101862.47;4977998;28;20074;-65
2022/12/06 07:15:41;;;;;;;7.87;5.73;;;;;;;3.21;100.00;101868.38;4984560;28;20088;-65
2022/12/06 07:18:07;;;;;;;8.27;5.77;;;;;;;3.18;100.00;101864.69;4984530;28;20030;-65
2022/12/06 07:20:32;;;;;;;10.37;5.30;;;;;;;3.15;100.00;101864.44;4984611;28;20014;-65
2022/12/06 07:22:58;;;;;;;8.30;4.97;;;;;;;3.12;100.00;101862.53;4983723;28;20248;-64
2022/12/06 07:25:23;;;;;;;7.87;4.97;;;;;;;3.08;100.00;101865.59;4985384;28;20097;-64
2022/12/06 07:27:48;;;;;;;10.47;5.70;;;;;;;3.07;100.00;101866.38;4984345;28;20022;-65
2022/12/06 07:30:14;;;;;;;8.77;5.73;;;;;;;3.06;100.00;101868.03;4983643;28;20851;-64
2022/12/06 07:32:39;;;;;;;8.13;5.40;;;;;;;3.05;100.00;101873.94;4984245;28;20030;-65
2022/12/06 07:35:05;;;;;;;8.60;6.13;;;;;;;3.06;100.00;101873.16;4985004;28;20042;-65
2022/12/06 07:37:30;;;;;;;10.57;5.80;;;;;;;3.04;100.00;101874.72;4985837;28;20030;-65
2022/12/06 07:39:56;;;;;;;8.83;5.30;;;;;;;3.05;100.00;101876.50;4985885;28;20034;-64
2022/12/06 07:45:07;;;;;;;10.40;5.30;;;;;;;3.06;100.00;101869.72;4987352;28;20121;-65
2022/12/06 07:47:38;;;;;;;10.53;5.77;;;;;;;3.05;100.00;101868.84;4975244;28;20037;-65
2022/12/06 07:50:05;;;;;;;7.03;5.15;;;;;;;3.06;100.00;101873.16;4987549;28;20027;-65
2022/12/06 07:52:34;;;;;;;10.23;5.90;;;;;;;3.06;100.00;101882.53;4987492;28;20030;-64
2022/12/06 07:55:00;;;;;;;7.67;5.10;;;;;;;3.05;100.00;101884.19;4987654;28;20018;-65
2022/12/06 07:57:25;;;;;;;9.60;6.20;;;;;;;3.05;100.00;101879.06;4987964;28;20273;-64
2022/12/06 07:59:51;;;;;;;8.10;6.80;;;;;;;3.06;100.00;101885.97;4987201;28;20034;-65
2022/12/06 08:02:19;;;;;;;9.47;5.80;;;;;;;3.06;100.00;101891.09;4987927;28;20105;-64
2022/12/06 08:04:45;;;;;;;9.93;6.37;;;;;;;3.06;100.00;101893.66;4987941;28;20022;-65
2022/12/06 08:07:11;;;;;;;9.17;6.00;;;;;;;3.07;100.00;101898.03;4982901;28;20195;-64
2022/12/06 08:09:36;;;;;;;9.90;5.70;;;;;;;3.08;100.00;101893.78;4980852;28;20034;-65
2022/12/06 08:12:01;;;;;;;8.00;5.73;;;;;;;3.08;100.00;101892.13;4985703;28;20041;-65
2022/12/06 08:14:27;;;;;;;12.60;6.50;;;;;;;3.08;100.00;101889.56;4987474;28;20034;-65
2022/12/06 08:16:52;;;;;;;12.97;6.13;;;;;;;3.09;100.00;101890.47;4987926;28;20105;-64
2022/12/06 08:19:17;;;;;;;9.60;6.17;;;;;;;3.09;100.00;101893.03;4987548;28;20061;-65
2022/12/06 08:21:43;;;;;;;12.20;6.07;;;;;;;3.11;100.00;101896.59;4987023;28;20117;-64
2022/12/06 08:24:08;;;;;;;11.27;6.23;;;;;;;3.12;100.00;101896.72;4986847;28;20042;-64
2022/12/06 08:26:35;;;;;;;12.77;6.37;;;;;;;3.14;100.00;101898.50;4987785;28;20093;-64
2022/12/06 08:29:00;;;;;;;7.83;6.10;;;;;;;3.14;100.00;101895.94;4987729;28;20045;-65
2022/12/06 08:31:26;;;;;;;8.57;6.97;;;;;;;3.14;100.00;101899.41;4986851;28;20030;-65
2022/12/06 08:33:51;;;;;;;6.80;5.93;;;;;;;3.15;100.00;101900.31;4987624;28;20050;-64
2022/12/06 08:36:19;;;;;;;10.30;6.30;;;;;;;3.16;100.00;101892.75;4987161;28;20026;-65
2022/12/06 08:38:45;;;;;;;9.60;6.27;;;;;;;3.17;100.00;101891.94;4989121;28;20467;-64
2022/12/06 08:43:57;;;;;;;10.10;6.17;;;;;;;3.19;100.00;101899.75;4990661;28;20593;-65
2022/12/06 08:46:22;;;;;;;11.67;6.13;;;;;;;3.18;100.00;101897.97;4971422;28;20121;-65
2022/12/06 08:48:48;;;;;;;8.93;5.50;;;;;;;3.17;100.00;101903.84;4984927;28;20026;-65
2022/12/06 08:51:13;;;;;;;7.17;5.53;;;;;;;3.17;100.00;101903.84;4990547;28;20030;-65
2022/12/06 08:53:39;;;;;;;7.87;5.57;;;;;;;3.14;100.00;101904.53;4989834;28;20045;-65
2022/12/06 08:56:04;;;;;;;9.23;6.13;;;;;;;3.14;100.00;101906.19;4990239;28;20098;-64
2022/12/06 08:58:30;;;;;;;7.27;6.00;;;;;;;3.10;100.00;101903.38;4989487;28;20088;-64
2022/12/06 09:00:55;;;;;;;11.20;6.47;;;;;;;3.10;100.00;101908.50;4989936;28;20034;-64
2022/12/06 09:03:21;;;;;;;8.57;5.27;;;;;;;3.04;100.00;101902.88;4990825;28;20058;-65
2022/12/06 09:05:46;;;;;;;10.97;5.53;;;;;;;2.99;100.00;101906.75;4990485;28;20022;-65
2022/12/06 09:08:11;;;;;;;8.47;6.17;;;;;;;2.97;100.00;101913.41;4989489;28;20034;-64
2022/12/06 09:10:37;;;;;;;8.77;6.20;;;;;;;2.97;100.00;101910.84;4978887;28;20022;-65
2022/12/06 09:13:02;;;;;;;7.80;5.40;;;;;;;2.93;100.00;101916.50;4988656;28;20073;-64
2022/12/06 09:15:27;;;;;;;8.60;6.10;;;;;;;2.90;100.00;101913.72;4990039;28;20125;-65
2022/12/06 09:17:53;;;;;;;9.13;6.00;;;;;;;2.88;100.00;101916.13;4989489;28;20121;-64
2022/12/06 09:20:18;;;;;;;9.47;5.87;;;;;;;2.86;100.00;101918.56;4989697;28;20105;-64
2022/12/06 09:22:44;;;;;;;9.47;6.33;;;;;;;2.82;100.00;101916.53;4989202;28;20474;-64
2022/12/06 09:25:10;;;;;;;10.50;6.30;;;;;;;2.79;100.00;101921.41;4989550;28;20092;-65
2022/12/06 09:27:36;;;;;;;7.90;6.87;;;;;;;2.79;100.00;101926.50;4989756;28;20026;-65
2022/12/06 09:30:02;;;;;;;12.53;7.60;;;;;;;2.76;100.00;101918.59;4989838;28;20066;-65
2022/12/06 09:32:28;;;;;;;8.43;6.90;;;;;;;2.73;100.00;101918.34;4989659;28;20721;-64
2022/12/06 09:34:54;;;;;;;12.47;7.40;;;;;;;2.74;100.00;101915.91;4990067;28;20042;-64
2022/12/06 09:37:19;;;;;;;8.93;6.80;;;;;;;2.76;100.00;101918.59;4989616;28;20430;-65
2022/12/06 09:39:50;;;;;;;12.00;7.20;;;;;;;2.80;100.00;101917.19;4989544;28;20117;-65
2022/12/06 09:42:18;;;;;;;10.05;6.93;;;;;;;2.84;100.00;101919.22;4989666;28;20030;-65
2022/12/06 09:45:21;;;;;;;9.40;6.77;;;;;;;2.90;100.00;101923.94;4988830;28;20026;-64
2022/12/06 09:48:21;;;;;;;11.70;7.30;;;;;;;2.95;100.00;101927.78;4989293;28;20498;-65
2022/12/06 09:51:00;;;;;;;9.90;6.70;;;;;;;2.98;100.00;101928.03;4988008;28;20050;-65
2022/12/06 09:53:41;;;;;;;9.63;7.00;;;;;;;3.02;100.00;101927.50;4989706;28;20033;-64
2022/12/06 09:56:30;;;;;;;11.50;7.25;;;;;;;3.05;100.00;101919.16;4988026;28;20026;-64
2022/12/06 09:59:16;;;;;;;9.43;6.83;;;;;;;3.07;100.00;101922.75;4989040;28;20027;-64
2022/12/06 10:01:59;;;;;;;11.17;7.43;;;;;;;3.09;100.00;101927.22;4989743;28;20041;-64
2022/12/06 10:04:40;;;;;;;9.63;7.00;;;;;;;3.10;100.00;101923.88;4978824;28;20061;-65
2022/12/06 10:07:08;;;;;;;9.10;6.60;;;;;;;3.12;100.00;101917.22;4988512;28;20022;-65
2022/12/06 10:09:58;;;;;;;11.13;6.93;;;;;;;3.14;100.00;101909.66;4989179;28;20486;-65
2022/12/06 10:12:34;;;;;;;6.67;5.80;;;;;;;3.16;100.00;101912.31;4989332;28;20036;-65
2022/12/06 10:15:29;;;;;;;7.90;5.67;;;;;;;3.17;100.00;101909.88;4977679;28;20054;-64
2022/12/06 10:18:03;;;;;;;6.73;5.10;;;;;;;3.18;100.00;101905.66;4982058;28;20494;-64
2022/12/06 10:20:34;;;;;;;9.07;5.10;;;;;;;3.18;100.00;101897.97;4989106;28;20364;-65
2022/12/06 10:23:28;;;;;;;6.97;4.70;;;;;;;3.20;100.00;101901.56;4988654;28;20022;-64
2022/12/06 10:26:18;;;;;;;7.32;4.97;;;;;;;3.22;100.00;101902.59;4988625;28;20109;-65
2022/12/06 10:28:44;;;;;;;7.30;4.93;;;;;;;3.24;100.00;101894.22;4988645;28;20554;-64
2022/12/06 10:31:44;;;;;;;8.13;5.20;;;;;;;3.26;100.00;101894.34;4988565;28;20410;-65
2022/12/06 10:34:41;;;;;;;6.60;4.17;;;;;;;3.28;100.00;101897.94;4988373;28;20080;-65
2022/12/06 10:37:21;;;;;;;6.47;4.50;;;;;;;3.29;100.00;101898.84;4988195;28;20094;-64
2022/12/06 10:39:53;;;;;;;6.40;4.47;;;;;;;3.31;100.00;101894.72;4988382;28;20087;-64
2022/12/06 10:42:37;;;;;;;7.90;4.78;;;;;;;3.32;100.00;101899.97;4988020;28;20022;-65
2022/12/06 10:48:12;;;;;;;7.17;4.97;;;;;;;3.42;100.00;101904.13;4988763;28;20085;-64
2022/12/06 10:50:39;;;;;;;7.57;5.00;;;;;;;3.47;100.00;101902.81;4987876;28;20109;-65
2022/12/06 10:53:13;;;;;;;9.17;5.60;;;;;;;3.50;100.00;101902.19;4988338;28;20030;-65
2022/12/06 10:55:44;;;;;;;6.73;4.63;;;;;;;3.53;100.00;101899.84;4988103;28;20018;-64
2022/12/06 10:58:15;;;;;;;;;;;;;;;3.52;100.00;101898.06;4988513;28;20368;-65
2022/12/06 11:00:57;;;;;;;6.93;4.20;;;;;;;3.55;100.00;101903.44;4987612;28;19933;-64
2022/12/06 11:03:34;;;;;;;5.60;4.53;;;;;;;3.56;100.00;101905.19;4987670;28;20194;-65
2022/12/06 11:06:09;;;;;;;7.07;5.43;;;;;;;3.60;100.00;101891.84;4988333;28;20814;-64
2022/12/06 11:08:56;;;;;;;7.13;4.90;;;;;;;3.66;100.00;101894.00;4987578;28;20049;-65
2022/12/06 11:11:30;;;;;;;6.07;4.93;;;;;;;3.69;100.00;101896.81;4987811;28;20463;-64
2022/12/06 11:14:02;;;;;;;7.13;5.10;;;;;;;3.72;100.00;101898.72;4987704;28;20034;-65
2022/12/06 11:16:44;;;;;;;5.97;4.90;;;;;;;3.73;100.00;101892.81;4987386;28;20084;-65
2022/12/06 11:19:27;;;;;;;7.60;4.87;;;;;;;3.77;100.00;101902.53;4988029;28;20038;-64
2022/12/06 11:22:06;;;;;;;4.00;3.30;;;;;;;3.79;100.00;101897.50;4975577;28;20081;-64
2022/12/06 11:24:39;;;;;;;7.23;3.47;;;;;;;3.80;100.00;101892.50;4987031;28;20113;-65
2022/12/06 11:27:15;;;;;;;4.03;3.17;;;;;;;3.80;100.00;101892.50;4987699;28;20386;-65
2022/12/06 11:29:42;;;;;;;3.65;2.78;;;;;;;3.81;100.00;101891.72;4983361;28;20744;-64
2022/12/06 11:32:11;;;;;;;5.33;2.87;;;;;;;3.82;100.00;101888.38;4987753;28;20049;-65
2022/12/06 11:34:49;;;;;;;5.97;3.60;;;;;;;3.87;100.00;101885.28;4987268;28;20030;-65
2022/12/06 11:37:18;;;;;;;6.53;5.23;;;;;;;4.02;100.00;101889.00;4988017;28;20031;-64
2022/12/06 11:39:44;;;;;;;7.47;4.70;;;;;;;4.27;100.00;101878.03;4986292;28;20037;-64
2022/12/06 11:42:13;;;;;;;7.65;4.75;;;;;;;4.53;100.00;101883.31;4988359;28;20108;-64
2022/12/06 11:44:52;;;;;;;8.25;4.63;;;;;;;4.65;100.00;101875.59;4987236;28;20025;-64
2022/12/06 11:47:20;;;;;;;7.05;4.68;;;;;;;4.74;100.00;101878.84;4987250;28;20030;-65
2022/12/06 11:49:47;;;;;;;4.80;3.83;;;;;;;4.85;100.00;101879.63;4976869;28;20037;-64
2022/12/06 11:52:51;;;;;;;4.40;4.00;;;;;;;4.95;100.00;101867.44;4987568;28;20503;-64
2022/12/06 11:55:21;;;;;;;4.82;3.20;;;;;;;5.13;100.00;101862.69;4987870;28;20214;-64